Terminal Aerodrome Forecast
Issued by NWS

Home | Current Version | Previous Version | Text Only | Print | Product List | Glossary On
Versions: 1 2 3 4 5 6 7 8 9 10 11 12 13 14 15 16
359
FTUS43 KBIS 110522
TAFMOT
TAF
KMOT 110522Z 1106/1206 00000KT P6SM OVC015
     FM111000 VRB03KT P6SM OVC010
     FM111600 07004KT 3SM -SN BR OVC010
     FM120100 01007KT P6SM OVC030
     FM120200 01008KT P6SM OVC050=

USA.gov is the U.S. government's official web portal to all federal, state and local government web resources and services.